createdAt,value
2018-12-06T00:01:15.972Z,1.33
2018-12-06T00:03:45.755Z,1.20
2018-12-06T00:07:43.041Z,1.40
2018-12-06T00:10:14.148Z,1.30
2018-12-06T00:12:44.727Z,1.20
2018-12-06T00:15:27.605Z,1.50
2018-12-06T00:17:58.841Z,1.20
2018-12-06T00:20:30.445Z,1.80
2018-12-06T00:23:02.286Z,1.20
2018-12-06T00:25:33.657Z,1.30
2018-12-06T00:28:04.687Z,1.40
2018-12-06T00:30:41.089Z,1.60
2018-12-06T00:33:12.619Z,1.33
2018-12-06T00:35:42.931Z,1.60
2018-12-06T00:38:15.493Z,1.50
2018-12-06T00:40:46.668Z,1.63
2018-12-06T00:43:19.251Z,1.17
2018-12-06T00:45:50.521Z,1.30
2018-12-06T00:48:22.722Z,1.33
2018-12-06T00:50:55.247Z,1.20
2018-12-06T00:53:26.245Z,1.17
2018-12-06T00:55:57.495Z,1.20
2018-12-06T00:58:29.218Z,1.67
2018-12-06T01:01:01.279Z,1.20
2018-12-06T01:03:33.975Z,1.40
2018-12-06T01:06:05.701Z,1.20
2018-12-06T01:08:35.776Z,1.43
2018-12-06T01:11:08.499Z,1.40
2018-12-06T01:13:40.291Z,1.20
2018-12-06T01:16:12.601Z,1.37
2018-12-06T01:18:43.431Z,1.40
2018-12-06T01:21:15.199Z,1.33
2018-12-06T01:23:46.663Z,1.20
2018-12-06T01:26:17.657Z,1.10
2018-12-06T01:28:50.110Z,2.07
2018-12-06T01:31:20.600Z,1.30
2018-12-06T01:33:52.720Z,1.40
2018-12-06T01:36:25.249Z,1.43
2018-12-06T01:38:56.453Z,1.30
2018-12-06T01:41:27.965Z,1.40
2018-12-06T01:43:59.085Z,1.60
2018-12-06T01:46:31.743Z,1.30
2018-12-06T01:49:03.621Z,1.40
2018-12-06T01:51:36.554Z,1.30
2018-12-06T01:54:07.654Z,1.53
2018-12-06T01:57:31.526Z,1.33
2018-12-06T02:00:03.336Z,1.40
2018-12-06T02:02:33.656Z,1.20
2018-12-06T02:05:06.634Z,1.33
2018-12-06T02:07:37.365Z,1.40
2018-12-06T02:10:08.305Z,1.30
2018-12-06T02:12:38.950Z,1.40
2018-12-06T02:15:10.354Z,1.20
2018-12-06T02:17:40.282Z,1.10
2018-12-06T02:20:11.393Z,1.10
2018-12-06T02:22:41.791Z,1.23
2018-12-06T02:25:14.045Z,1.20
2018-12-06T02:27:44.337Z,1.17
2018-12-06T02:30:15.054Z,1.13
2018-12-06T02:32:46.382Z,1.00
2018-12-06T02:35:18.141Z,1.50
2018-12-06T02:37:49.680Z,1.23
2018-12-06T02:40:20.743Z,1.20
2018-12-06T02:42:51.006Z,1.30
2018-12-06T02:45:21.084Z,1.10
2018-12-06T02:47:52.098Z,1.53
2018-12-06T02:50:23.622Z,1.07
2018-12-06T02:52:56.285Z,1.10
2018-12-06T02:55:27.078Z,1.20
2018-12-06T02:57:59.818Z,1.50
2018-12-06T03:00:31.348Z,1.40
2018-12-06T03:03:02.072Z,1.70
2018-12-06T03:05:33.505Z,1.37
2018-12-06T03:08:05.223Z,1.30
2018-12-06T03:10:36.759Z,1.50
2018-12-06T03:13:07.732Z,1.60
2018-12-06T03:15:37.667Z,1.30
2018-12-06T03:18:08.704Z,1.57
2018-12-06T03:20:40.250Z,1.70
2018-12-06T03:23:11.076Z,2.00
2018-12-06T03:25:41.715Z,1.50
2018-12-06T03:28:12.782Z,1.40
2018-12-06T03:30:42.960Z,1.60
2018-12-06T03:33:14.222Z,1.70
2018-12-06T03:35:44.769Z,1.73
2018-12-06T03:38:18.380Z,1.50
2018-12-06T03:40:50.599Z,1.67
2018-12-06T03:43:22.424Z,1.90
2018-12-06T03:45:52.842Z,1.80
2018-12-06T03:48:24.170Z,1.73
2018-12-06T03:50:55.833Z,1.97
2018-12-06T03:53:26.424Z,1.77
2018-12-06T03:55:56.764Z,1.67
2018-12-06T03:58:32.281Z,1.87
2018-12-06T04:01:02.343Z,2.13
2018-12-06T04:03:33.329Z,2.50
2018-12-06T04:06:04.265Z,1.80
2018-12-06T04:08:36.096Z,1.80
2018-12-06T04:11:06.544Z,2.20
2018-12-06T04:13:36.931Z,2.50
2018-12-06T04:16:06.918Z,1.93
2018-12-06T04:18:37.154Z,2.10
2018-12-06T04:21:07.444Z,1.90
2018-12-06T04:23:37.236Z,2.23
2018-12-06T04:26:08.535Z,2.77
2018-12-06T04:28:40.273Z,2.30
2018-12-06T04:31:10.500Z,2.27
2018-12-06T04:33:40.413Z,2.73
2018-12-06T04:36:11.818Z,2.70
2018-12-06T04:38:42.534Z,2.90
2018-12-06T04:41:14.686Z,2.40
2018-12-06T04:43:44.825Z,2.70
2018-12-06T04:46:15.635Z,2.27
2018-12-06T04:48:45.938Z,2.50
2018-12-06T04:51:16.136Z,2.70
2018-12-06T04:53:46.023Z,2.97
2018-12-06T04:56:16.033Z,2.70
2018-12-06T04:58:46.297Z,2.73
2018-12-06T05:01:25.089Z,2.80
2018-12-06T05:03:55.443Z,2.73
2018-12-06T05:06:25.839Z,3.17
2018-12-06T05:08:55.836Z,2.80
2018-12-06T05:11:30.735Z,2.90
2018-12-06T05:14:00.875Z,2.43
2018-12-06T05:16:30.877Z,2.90
2018-12-06T05:19:00.838Z,3.80
2018-12-06T05:21:32.726Z,4.00
2018-12-06T05:24:03.182Z,3.37
2018-12-06T05:26:33.662Z,3.80
2018-12-06T05:29:03.705Z,3.80
2018-12-06T05:31:33.553Z,3.73
2018-12-06T05:34:03.518Z,3.40
2018-12-06T05:36:33.976Z,3.63
2018-12-06T05:39:03.738Z,3.60
2018-12-06T05:41:33.681Z,4.00
2018-12-06T05:44:04.209Z,4.10
2018-12-06T05:46:33.969Z,4.13
2018-12-06T05:49:03.849Z,4.20
2018-12-06T05:51:34.037Z,4.50
2018-12-06T05:54:04.355Z,4.13
2018-12-06T05:56:34.232Z,4.53
2018-12-06T05:59:04.231Z,4.03
2018-12-06T06:01:34.214Z,4.27
2018-12-06T06:04:05.603Z,5.17
2018-12-06T06:06:36.244Z,4.30
2018-12-06T06:09:08.408Z,4.60
2018-12-06T06:11:38.666Z,4.97
2018-12-06T06:14:08.504Z,4.97
2018-12-06T06:16:38.449Z,4.43
2018-12-06T06:19:08.216Z,4.93
2018-12-06T06:21:38.370Z,4.57
2018-12-06T06:24:08.587Z,4.47
2018-12-06T06:26:39.164Z,5.03
2018-12-06T06:29:09.806Z,4.60
2018-12-06T06:31:39.543Z,4.80
2018-12-06T06:34:09.450Z,4.60
2018-12-06T06:36:39.801Z,4.57
2018-12-06T06:39:10.298Z,5.30
2018-12-06T06:41:40.181Z,4.60
2018-12-06T06:44:10.550Z,5.10
2018-12-06T06:46:40.643Z,4.80
2018-12-06T06:49:13.729Z,4.30
2018-12-06T06:51:42.159Z,4.70
2018-12-06T06:54:12.448Z,4.90
2018-12-06T06:56:42.152Z,4.30
2018-12-06T06:59:12.257Z,5.00
2018-12-06T07:01:42.001Z,4.00
2018-12-06T07:04:12.051Z,4.50
2018-12-06T07:06:44.284Z,4.03
2018-12-06T07:09:14.042Z,4.30
2018-12-06T07:11:43.772Z,4.17
2018-12-06T07:14:13.778Z,4.03
2018-12-06T07:16:44.912Z,4.57
2018-12-06T07:19:14.951Z,4.00
2018-12-06T07:21:44.831Z,4.13
2018-12-06T07:24:15.172Z,4.20
2018-12-06T07:26:45.448Z,4.70
2018-12-06T07:29:16.104Z,4.20
2018-12-06T07:31:46.074Z,4.33
2018-12-06T07:34:17.433Z,4.83
2018-12-06T07:36:47.262Z,4.60
2018-12-06T07:39:17.640Z,4.37
2018-12-06T07:41:47.729Z,4.13
2018-12-06T07:44:19.928Z,4.10
2018-12-06T07:46:50.142Z,3.23
2018-12-06T07:49:20.329Z,5.57
2018-12-06T07:51:50.405Z,4.70
2018-12-06T07:54:20.602Z,5.50
2018-12-06T07:56:50.396Z,4.90
2018-12-06T07:59:20.340Z,3.30
2018-12-06T08:01:50.064Z,3.30
2018-12-06T08:04:21.237Z,4.60
2018-12-06T08:06:52.032Z,4.20
2018-12-06T08:09:24.633Z,4.30
2018-12-06T08:11:54.610Z,4.20
2018-12-06T08:14:24.940Z,4.00
2018-12-06T08:16:54.839Z,4.00
2018-12-06T08:19:25.994Z,4.40
2018-12-06T08:22:04.536Z,4.30
2018-12-06T08:24:34.813Z,4.60
2018-12-06T08:27:06.382Z,3.93
2018-12-06T08:29:37.167Z,3.80
2018-12-06T08:32:07.872Z,3.57
2018-12-06T08:34:40.400Z,3.90
2018-12-06T08:37:10.650Z,3.33
2018-12-06T08:39:42.219Z,4.30
2018-12-06T08:42:12.035Z,3.43
2018-12-06T08:44:42.476Z,3.73
2018-12-06T14:38:10.018Z,2.13
2018-12-06T14:40:39.981Z,2.13
2018-12-06T14:43:10.342Z,2.20
2018-12-06T14:45:40.376Z,2.47
2018-12-06T14:48:11.160Z,2.10
2018-12-06T14:50:41.196Z,2.10
2018-12-06T14:53:11.286Z,2.43
2018-12-06T14:55:41.145Z,2.10
2018-12-06T14:58:11.947Z,2.67
2018-12-06T15:00:42.563Z,2.40
2018-12-06T15:03:12.364Z,2.07
2018-12-06T15:05:43.850Z,2.10
2018-12-06T15:08:13.883Z,2.00
2018-12-06T15:10:43.948Z,2.10
2018-12-06T15:13:13.862Z,1.80
2018-12-06T15:15:47.782Z,1.97
2018-12-06T15:18:21.084Z,1.80
2018-12-06T15:20:53.406Z,2.07
2018-12-06T15:23:24.292Z,2.33
2018-12-06T15:25:54.813Z,2.00
2018-12-06T15:28:25.015Z,2.13
2018-12-06T15:30:57.685Z,2.03
2018-12-06T15:33:27.890Z,2.50
2018-12-06T15:35:57.997Z,2.00
2018-12-06T15:38:27.985Z,2.10
2018-12-06T15:40:58.075Z,2.47
2018-12-06T15:43:29.626Z,2.30
2018-12-06T15:45:59.372Z,2.10
2018-12-06T15:48:29.943Z,2.57
2018-12-06T15:50:59.684Z,2.40
2018-12-06T15:53:29.495Z,2.50
2018-12-06T15:56:01.008Z,2.43
2018-12-06T15:58:30.782Z,2.30
2018-12-06T16:01:00.620Z,2.80
2018-12-06T16:03:31.201Z,2.30
2018-12-06T16:06:01.724Z,2.30
2018-12-06T16:08:32.643Z,2.43
2018-12-06T16:11:02.893Z,2.97
2018-12-06T16:13:32.945Z,2.60
2018-12-06T16:16:02.829Z,3.17
2018-12-06T16:18:33.129Z,3.60
2018-12-06T16:21:03.013Z,3.10
2018-12-06T16:23:32.811Z,3.87
2018-12-06T16:26:06.667Z,4.03
2018-12-06T16:28:38.038Z,4.27
2018-12-06T16:31:10.429Z,3.90
2018-12-06T16:33:42.510Z,4.30
2018-12-06T16:36:12.624Z,3.80
2018-12-06T16:38:43.516Z,3.60
2018-12-06T16:41:14.138Z,3.90
2018-12-06T16:43:44.217Z,4.27
2018-12-06T16:46:16.707Z,4.03
2018-12-06T16:48:46.842Z,4.10
2018-12-06T16:51:17.258Z,3.57
2018-12-06T16:53:48.030Z,3.40
2018-12-06T16:56:17.972Z,3.57
2018-12-06T16:58:48.863Z,4.13
2018-12-06T17:01:19.148Z,3.67
2018-12-06T17:03:49.022Z,3.70
2018-12-06T17:06:19.109Z,3.30
2018-12-06T17:08:49.853Z,3.63
2018-12-06T17:11:20.423Z,3.70
2018-12-06T17:13:51.838Z,4.10
2018-12-06T17:16:21.847Z,3.70
2018-12-06T17:18:51.599Z,3.90
2018-12-06T17:21:21.888Z,3.90
2018-12-06T17:23:53.012Z,3.47
2018-12-06T17:26:23.352Z,3.27
2018-12-06T17:28:53.520Z,3.00
2018-12-06T17:31:23.393Z,3.13
2018-12-06T17:33:54.223Z,3.37
2018-12-06T17:36:26.730Z,3.00
2018-12-06T17:38:57.670Z,3.57
2018-12-06T17:41:28.744Z,3.40
2018-12-06T17:43:59.103Z,2.93
2018-12-06T17:46:28.874Z,3.27
2018-12-06T17:48:58.790Z,2.97
2018-12-06T17:51:28.869Z,3.17
2018-12-06T17:53:58.751Z,3.43
2018-12-06T17:56:28.911Z,3.40
2018-12-06T17:58:59.244Z,3.60
2018-12-06T18:01:29.205Z,3.60
2018-12-06T18:04:00.603Z,2.97
2018-12-06T18:06:30.917Z,3.70
2018-12-06T18:09:00.977Z,3.77
2018-12-06T18:11:31.135Z,3.33
2018-12-06T18:14:01.417Z,3.43
2018-12-06T18:16:31.376Z,2.90
2018-12-06T18:19:01.209Z,3.87
2018-12-06T18:21:31.766Z,3.27
2018-12-06T18:24:01.533Z,3.33
2018-12-06T18:26:32.332Z,3.17
2018-12-06T18:29:02.880Z,2.97
2018-12-06T18:31:32.961Z,3.07
2018-12-06T18:34:05.156Z,3.80
2018-12-06T18:36:37.849Z,3.40
2018-12-06T18:39:09.675Z,3.60
2018-12-06T18:41:39.625Z,3.50
2018-12-06T18:44:12.927Z,3.80
2018-12-06T18:46:58.478Z,3.17
2018-12-06T18:49:29.754Z,3.47
2018-12-06T18:52:00.626Z,3.50
2018-12-06T18:54:32.088Z,3.90
2018-12-06T18:57:02.416Z,3.83
2018-12-06T18:59:32.786Z,3.00
2018-12-06T19:02:05.564Z,3.53
2018-12-06T19:04:35.883Z,3.77
2018-12-06T19:07:06.204Z,3.30
2018-12-06T19:09:37.564Z,3.13
2018-12-06T19:12:07.687Z,3.50
2018-12-06T19:17:39.362Z,2.83
2018-12-06T19:20:11.106Z,3.03
2018-12-06T19:22:41.250Z,2.60
2018-12-06T19:25:11.439Z,2.90
2018-12-06T19:27:41.652Z,2.87
2018-12-06T19:30:12.879Z,3.00
2018-12-06T19:32:45.781Z,2.67
2018-12-06T19:35:16.791Z,3.20
2018-12-06T19:37:47.987Z,2.70
2018-12-06T19:40:18.356Z,2.93
2018-12-06T19:42:49.209Z,2.63
2018-12-06T19:45:20.236Z,3.17
2018-12-06T19:47:50.086Z,2.87
2018-12-06T19:50:21.559Z,3.00
2018-12-06T19:52:51.804Z,2.60
2018-12-06T19:55:28.384Z,2.30
2018-12-06T19:57:59.025Z,2.93
2018-12-06T20:00:30.592Z,2.23
2018-12-06T20:03:00.521Z,2.37
2018-12-06T20:05:30.553Z,2.23
2018-12-06T20:08:00.690Z,2.70
2018-12-06T20:10:31.726Z,2.77
2018-12-06T20:13:03.204Z,2.73
2018-12-06T20:15:33.609Z,3.00
2018-12-06T20:18:03.660Z,2.97
2018-12-06T20:20:33.449Z,2.93
2018-12-06T20:23:04.582Z,2.60
2018-12-06T20:25:34.837Z,2.70
2018-12-06T20:28:04.717Z,2.90
2018-12-06T20:30:34.927Z,2.73
2018-12-06T20:33:04.720Z,3.00
2018-12-06T20:35:34.987Z,2.50
2018-12-06T20:38:05.575Z,2.40
2018-12-06T20:40:35.476Z,2.60
2018-12-06T20:43:05.969Z,2.97
2018-12-06T20:45:37.613Z,2.93
2018-12-06T20:48:07.537Z,2.80
2018-12-06T20:50:37.342Z,2.70
2018-12-06T20:53:07.257Z,3.00
2018-12-06T20:55:37.468Z,3.30
2018-12-06T20:58:14.649Z,2.93
2018-12-06T21:00:39.817Z,3.07
2018-12-06T21:03:12.193Z,2.97
2018-12-06T21:05:42.607Z,3.27
2018-12-06T21:08:12.751Z,3.53
2018-12-06T21:10:42.915Z,3.73
2018-12-06T21:13:13.048Z,3.90
2018-12-06T21:15:43.161Z,3.10
2018-12-06T21:18:12.824Z,3.67
2018-12-06T21:20:43.142Z,3.20
2018-12-06T21:23:13.047Z,3.27
2018-12-06T21:25:43.010Z,2.90
2018-12-06T21:28:14.332Z,3.20
2018-12-06T21:30:44.738Z,3.17
2018-12-06T21:33:14.689Z,2.97
2018-12-06T21:35:44.847Z,3.20
2018-12-06T21:38:16.192Z,3.10
2018-12-06T21:40:46.080Z,3.87
2018-12-06T21:43:16.394Z,3.33
2018-12-06T21:45:46.073Z,3.00
2018-12-06T21:48:16.478Z,3.33
2018-12-06T21:50:46.600Z,2.87
2018-12-06T21:53:16.313Z,3.47
2018-12-06T21:55:46.044Z,3.00
2018-12-06T21:58:17.084Z,3.20
2018-12-06T22:00:46.911Z,2.70
2018-12-06T22:03:16.677Z,2.97
2018-12-06T22:05:46.750Z,3.00
2018-12-06T22:08:20.417Z,3.00
2018-12-06T22:10:51.722Z,3.23
2018-12-06T22:13:22.333Z,3.30
2018-12-06T22:15:53.195Z,2.90
2018-12-06T22:18:23.517Z,2.80
2018-12-06T22:20:53.841Z,2.83
2018-12-06T22:23:23.600Z,2.90
2018-12-06T22:25:53.751Z,3.33
2018-12-06T22:28:23.520Z,3.00
2018-12-06T22:30:53.269Z,3.20
2018-12-06T22:33:23.804Z,2.90
2018-12-06T22:35:54.452Z,2.97
2018-12-06T22:38:25.126Z,3.17
2018-12-06T22:40:55.043Z,3.43
2018-12-06T22:43:26.127Z,3.00
2018-12-06T22:46:00.360Z,3.53
2018-12-06T22:48:30.172Z,3.07
2018-12-06T22:50:59.930Z,3.33
2018-12-06T22:53:30.055Z,3.87
2018-12-06T22:56:00.684Z,3.80
2018-12-06T22:58:31.828Z,3.27
2018-12-06T23:01:03.358Z,3.60
2018-12-06T23:03:34.138Z,3.00
2018-12-06T23:06:04.614Z,3.23
2018-12-06T23:08:34.677Z,3.03
2018-12-06T23:11:06.231Z,2.90
2018-12-06T23:13:36.329Z,2.67
2018-12-06T23:16:12.148Z,3.03
2018-12-06T23:18:42.157Z,3.50
2018-12-06T23:21:12.725Z,3.13
2018-12-06T23:23:43.186Z,3.33
2018-12-06T23:26:13.550Z,2.40
2018-12-06T23:28:44.218Z,2.83
2018-12-06T23:31:14.019Z,3.00
2018-12-06T23:33:45.128Z,3.30
2018-12-06T23:36:15.213Z,3.07
2018-12-06T23:38:45.540Z,3.30
2018-12-06T23:41:15.538Z,3.40
2018-12-06T23:43:45.547Z,3.40
2018-12-06T23:46:16.310Z,3.23
2018-12-06T23:48:46.317Z,3.20
2018-12-06T23:51:27.532Z,3.13
2018-12-06T23:53:57.499Z,3.00
2018-12-06T23:56:27.495Z,3.00
2018-12-06T23:58:57.499Z,3.03
